ADDS METAR Data INFO
IDs: Format: Raw Decoded Include TAF

Data at: 0728 UTC 16 Jan 2018

METAR for:PADQ (Kodiak Arpt, AK, US)
Text:PADQ 160653Z AUTO 31010G17KT 10SM CLR 03/M01 A2937 RMK AO2 SLP945 T00331011 TSNO $
Temperature: 3.3°C ( 38°F)
Dewpoint: -1.1°C ( 30°F) [RH = 73%]
Pressure (altimeter):29.37 inches Hg ( 994.7 mb) [Sea level pressure: 994.5 mb]
Winds:from the NW (310 degrees) at 12 MPH (10 knots; 5.1 m/s) gusting to 20 MPH (17 knots; 8.7 m/s)
Visibility:10 or more sm (16+ km)
Ceiling:at least 12,000 feet AGL
Clouds:sky clear below 12,000 feet AGL
QC Flag:automated observation with no human augmentation; SOME DATA ABOVE MAY BE INACCURATE!!!"$" is an indication the sensor requires maintenance.
Text:PADQ 160553Z AUTO 29010KT 10SM CLR 03/M01 A2939 RMK AO2 SLP954 T00331011 10039 20000 57019 TSNO $
Temperature: 3.3°C ( 38°F)
Dewpoint: -1.1°C ( 30°F) [RH = 73%]
Pressure (altimeter):29.39 inches Hg ( 995.3 mb) [Sea level pressure: 995.4 mb]
Winds:from the WNW (290 degrees) at 12 MPH (10 knots; 5.1 m/s)
Visibility:10 or more sm (16+ km)
Ceiling:at least 12,000 feet AGL
Clouds:sky clear below 12,000 feet AGL
QC Flag:automated observation with no human augmentation; SOME DATA ABOVE MAY BE INACCURATE!!!"$" is an indication the sensor requires maintenance.
Text:PADQ 160453Z 30010KT 10SM CLR 03/M01 A2941 RMK AO2 SLP961 T00331006 $
Temperature: 3.3°C ( 38°F)
Dewpoint: -0.6°C ( 31°F) [RH = 76%]
Pressure (altimeter):29.41 inches Hg ( 996.0 mb) [Sea level pressure: 996.1 mb]
Winds:from the WNW (300 degrees) at 12 MPH (10 knots; 5.1 m/s)
Visibility:10 or more sm (16+ km)
Ceiling:at least 12,000 feet AGL
Clouds:sky clear below 12,000 feet AGL
QC Flag:SOME DATA ABOVE MAY BE INACCURATE!!!"$" is an indication the sensor requires maintenance.
Text:PADQ 160353Z 30008KT 10SM CLR 02/M01 A2943 RMK AO2 SLP966 T00221011 $
Temperature: 2.2°C ( 36°F)
Dewpoint: -1.1°C ( 30°F) [RH = 79%]
Pressure (altimeter):29.43 inches Hg ( 996.7 mb) [Sea level pressure: 996.6 mb]
Winds:from the WNW (300 degrees) at 9 MPH (8 knots; 4.1 m/s)
Visibility:10 or more sm (16+ km)
Ceiling:at least 12,000 feet AGL
Clouds:sky clear below 12,000 feet AGL
QC Flag:SOME DATA ABOVE MAY BE INACCURATE!!!"$" is an indication the sensor requires maintenance.
Text:PADQ 160253Z 32007KT 10SM CLR 02/M01 A2945 RMK AO2 SLP973 T00221011 56004 $
Temperature: 2.2°C ( 36°F)
Dewpoint: -1.1°C ( 30°F) [RH = 79%]
Pressure (altimeter):29.45 inches Hg ( 997.4 mb) [Sea level pressure: 997.3 mb]
Winds:from the NW (320 degrees) at 8 MPH (7 knots; 3.6 m/s)
Visibility:10 or more sm (16+ km)
Ceiling:at least 12,000 feet AGL
Clouds:sky clear below 12,000 feet AGL
QC Flag:SOME DATA ABOVE MAY BE INACCURATE!!!"$" is an indication the sensor requires maintenance.
Text:PADQ 160153Z 31003KT 10SM CLR 02/M01 A2946 RMK AO2 SLP976 T00171011 $
Temperature: 1.7°C ( 35°F)
Dewpoint: -1.1°C ( 30°F) [RH = 82%]
Pressure (altimeter):29.46 inches Hg ( 997.7 mb) [Sea level pressure: 997.6 mb]
Winds:from the NW (310 degrees) at 3 MPH (3 knots; 1.5 m/s)
Visibility:10 or more sm (16+ km)
Ceiling:at least 12,000 feet AGL
Clouds:sky clear below 12,000 feet AGL
QC Flag:SOME DATA ABOVE MAY BE INACCURATE!!!"$" is an indication the sensor requires maintenance.

TAF for:PADQ (Kodiak Arpt, AK, US) issued at 0556 UTC 16 Jan 2018
Text:PADQ 160556Z 1606/1706 31013G19KT P6SM SCT100 BKN200
Forecast period:0600 to 1200 UTC 16 January 2018
Forecast type:FROM: standard forecast or significant change
Winds:from the NW (310 degrees) at 15 MPH (13 knots; 6.7 m/s) gusting to 22 MPH (19 knots; 9.8 m/s)
Visibility:6 or more sm (10+ km)
Ceiling:20000 feet AGL
Clouds: scattered clouds at 10000 feet AGL, broken clouds at 20000 feet AGL
Text:FM161200 33020G28KT 5SM -RA BR OVC020
Forecast period:1200 to 2100 UTC 16 January 2018
Forecast type:FROM: standard forecast or significant change
Winds:from the NNW (330 degrees) at 23 MPH (20 knots; 10.3 m/s) gusting to 32 MPH (28 knots; 14.4 m/s)
Visibility: 5 sm ( 8 km)
Ceiling:2000 feet AGL
Clouds: overcast cloud deck at 2000 feet AGL
Weather:-RA BR (light rain, mist)
Text:FM162100 36015G22KT 3SM -RA BR SCT008 OVC015
Forecast period:2100 UTC 16 January 2018 to 0600 UTC 17 January 2018
Forecast type:FROM: standard forecast or significant change
Winds:from the N (360 degrees) at 17 MPH (15 knots; 7.7 m/s) gusting to 25 MPH (22 knots; 11.3 m/s)
Visibility: 3 sm ( 5 km)
Ceiling:1500 feet AGL
Clouds: scattered clouds at 800 feet AGL, overcast cloud deck at 1500 feet AGL
Weather:-RA BR (light rain, mist)